createdAt,value
2019-03-23T00:02:15.481Z,102962.73
2019-03-23T00:04:44.252Z,102957.49
2019-03-23T00:07:13.193Z,102958.56
2019-03-23T00:09:41.856Z,102950.70
2019-03-23T00:12:10.484Z,102954.52
2019-03-23T00:14:39.264Z,102948.28
2019-03-23T00:17:07.902Z,102944.39
2019-03-23T00:19:36.743Z,102946.86
2019-03-23T00:22:05.598Z,102948.75
2019-03-23T00:24:34.265Z,102948.06
2019-03-23T00:27:03.127Z,102941.35
2019-03-23T00:29:31.841Z,102941.63
2019-03-23T00:32:00.711Z,102945.86
2019-03-23T00:34:29.347Z,102949.10
2019-03-23T00:36:57.970Z,102938.19
2019-03-23T00:39:26.781Z,102928.70
2019-03-23T00:41:55.597Z,102933.25
2019-03-23T00:44:24.281Z,102929.89
2019-03-23T00:46:52.949Z,102931.17
2019-03-23T00:49:21.745Z,102934.22
2019-03-23T00:51:50.380Z,102935.06
2019-03-23T00:54:19.060Z,102934.01
2019-03-23T00:56:47.995Z,102924.41
2019-03-23T00:59:16.692Z,102930.16
2019-03-23T01:01:45.340Z,102931.86
2019-03-23T01:04:15.936Z,102927.83
2019-03-23T01:06:52.123Z,102928.50
2019-03-23T01:09:15.124Z,102926.42
2019-03-23T01:11:43.947Z,102931.09
2019-03-23T01:14:12.611Z,102914.36
2019-03-23T01:16:41.320Z,102917.87
2019-03-23T01:19:10.124Z,102918.83
2019-03-23T01:21:38.985Z,102902.64
2019-03-23T01:24:07.741Z,102909.38
2019-03-23T01:26:36.383Z,102909.19
2019-03-23T01:29:07.043Z,102915.98
2019-03-23T01:31:35.691Z,102912.70
2019-03-23T01:34:06.428Z,102916.75
2019-03-23T01:36:35.445Z,102914.09
2019-03-23T01:39:06.567Z,102915.67
2019-03-23T01:41:35.217Z,102919.18
2019-03-23T01:44:04.808Z,102917.98
2019-03-23T01:46:33.452Z,102920.61
2019-03-23T01:49:02.206Z,102925.96
2019-03-23T01:51:30.840Z,102929.53
2019-03-23T01:53:59.595Z,102924.83
2019-03-23T01:56:28.433Z,102927.62
2019-03-23T01:58:57.063Z,102933.12
2019-03-23T02:01:25.725Z,102924.06
2019-03-23T02:03:54.518Z,102933.17
2019-03-23T02:06:23.159Z,102924.46
2019-03-23T02:08:51.838Z,102925.39
2019-03-23T02:11:20.694Z,102923.84
2019-03-23T02:13:51.130Z,102926.77
2019-03-23T02:16:19.930Z,102929.39
2019-03-23T02:18:48.547Z,102916.87
2019-03-23T02:21:17.411Z,102908.53
2019-03-23T02:23:46.265Z,102920.52
2019-03-23T02:26:14.934Z,102918.09
2019-03-23T02:28:43.773Z,102920.18
2019-03-23T02:31:12.419Z,102914.58
2019-03-23T02:33:42.172Z,102914.34
2019-03-23T02:36:10.920Z,102911.55
2019-03-23T02:38:39.579Z,102914.12
2019-03-23T02:41:08.267Z,102918.23
2019-03-23T02:43:37.117Z,102913.70
2019-03-23T02:46:05.782Z,102909.84
2019-03-23T02:48:34.471Z,102903.01
2019-03-23T02:51:03.329Z,102909.09
2019-03-23T02:53:31.946Z,102910.81
2019-03-23T02:56:00.617Z,102907.38
2019-03-23T02:58:29.503Z,102904.63
2019-03-23T03:00:58.231Z,102897.34
2019-03-23T03:03:26.860Z,102911.03
2019-03-23T03:05:55.594Z,102904.67
2019-03-23T03:08:24.219Z,102897.58
2019-03-23T03:10:52.869Z,102895.73
2019-03-23T03:13:21.750Z,102888.72
2019-03-23T03:15:50.474Z,102897.47
2019-03-23T03:18:19.142Z,102896.12
2019-03-23T03:20:48.425Z,102903.59
2019-03-23T03:23:17.162Z,102906.37
2019-03-23T03:25:46.228Z,102907.72
2019-03-23T03:28:14.898Z,102914.48
2019-03-23T03:30:43.815Z,102925.94
2019-03-23T03:33:15.893Z,102924.27
2019-03-23T03:35:45.848Z,102928.88
2019-03-23T03:38:14.830Z,102930.12
2019-03-23T03:40:43.542Z,102934.84
2019-03-23T03:43:13.641Z,102934.09
2019-03-23T03:45:42.899Z,102939.62
2019-03-23T03:48:11.570Z,102940.33
2019-03-23T03:50:40.392Z,102944.36
2019-03-23T03:53:09.134Z,102939.48
2019-03-23T03:55:38.099Z,102940.58
2019-03-23T03:58:09.731Z,102941.92
2019-03-23T04:00:40.254Z,102949.15
2019-03-23T04:03:08.974Z,102951.63
2019-03-23T04:05:38.867Z,102948.05
2019-03-23T04:08:11.457Z,102937.14
2019-03-23T04:10:41.703Z,102945.70
2019-03-23T04:13:11.552Z,102946.59
2019-03-23T04:15:41.356Z,102939.27
2019-03-23T04:18:10.179Z,102942.77
2019-03-23T04:20:42.045Z,102952.02
2019-03-23T04:23:10.756Z,102947.38
2019-03-23T04:25:39.683Z,102954.56
2019-03-23T04:28:08.953Z,102957.05
2019-03-23T04:30:38.547Z,102950.52
2019-03-23T04:33:08.670Z,102964.55
2019-03-23T04:35:46.314Z,102965.02
2019-03-23T04:38:22.658Z,102965.69
2019-03-23T04:40:47.393Z,102972.95
2019-03-23T04:43:19.480Z,102972.41
2019-03-23T04:45:48.815Z,102975.31
2019-03-23T04:48:20.415Z,102980.23
2019-03-23T04:50:50.499Z,102981.38
2019-03-23T04:53:19.347Z,102986.12
2019-03-23T04:55:49.667Z,102989.70
2019-03-23T04:58:20.022Z,102987.95
2019-03-23T05:00:48.967Z,102986.31
2019-03-23T05:03:18.418Z,102992.45
2019-03-23T05:05:47.693Z,103001.31
2019-03-23T05:08:20.154Z,102998.55
2019-03-23T05:10:51.702Z,103002.69
2019-03-23T05:13:20.487Z,103003.67
2019-03-23T05:15:49.451Z,103011.76
2019-03-23T05:18:18.155Z,103014.77
2019-03-23T05:20:46.839Z,103004.52
2019-03-23T05:23:15.735Z,103013.81
2019-03-23T05:25:44.711Z,103009.32
2019-03-23T05:28:13.618Z,103013.71
2019-03-23T05:30:42.257Z,103012.05
2019-03-23T05:33:10.942Z,103020.48
2019-03-23T05:35:39.795Z,103016.08
2019-03-23T05:38:08.488Z,103016.21
2019-03-23T05:40:37.177Z,103024.66
2019-03-23T05:43:07.830Z,103034.53
2019-03-23T05:45:36.712Z,103028.20
2019-03-23T05:48:05.614Z,103032.30
2019-03-23T05:50:34.363Z,103028.67
2019-03-23T05:53:03.174Z,103026.94
2019-03-23T05:55:31.823Z,103023.16
2019-03-23T05:58:02.616Z,103030.13
2019-03-23T06:00:31.344Z,103029.33
2019-03-23T06:03:00.191Z,103026.86
2019-03-23T06:05:28.881Z,103029.17
2019-03-23T06:07:57.533Z,103024.92
2019-03-23T06:10:29.647Z,103021.80
2019-03-23T06:12:58.421Z,103020.53
2019-03-23T06:15:28.273Z,103027.36
2019-03-23T06:17:57.157Z,103027.31
2019-03-23T06:20:26.038Z,103026.00
2019-03-23T06:22:55.901Z,103027.01
2019-03-23T06:25:24.573Z,103023.00
2019-03-23T06:27:53.454Z,103026.39
2019-03-23T06:30:22.179Z,103033.37
2019-03-23T06:32:51.126Z,103036.03
2019-03-23T06:35:20.011Z,103038.04
2019-03-23T06:37:48.729Z,103036.34
2019-03-23T06:40:17.468Z,103029.31
2019-03-23T06:42:47.354Z,103034.45
2019-03-23T06:45:16.349Z,103042.17
2019-03-23T06:47:45.065Z,103044.56
2019-03-23T06:50:14.205Z,103038.64
2019-03-23T06:52:42.940Z,103044.53
2019-03-23T06:55:11.609Z,103036.20
2019-03-23T06:57:40.595Z,103038.02
2019-03-23T07:00:10.194Z,103031.05
2019-03-23T07:02:38.899Z,103040.24
2019-03-23T07:05:08.234Z,103043.87
2019-03-23T07:07:37.052Z,103042.58
2019-03-23T07:10:07.690Z,103043.71
2019-03-23T07:12:36.812Z,103047.99
2019-03-23T07:15:19.142Z,103047.83
2019-03-23T07:17:38.795Z,103051.14
2019-03-23T07:20:09.126Z,103053.63
2019-03-23T07:22:38.100Z,103049.79
2019-03-23T07:25:07.904Z,103043.82
2019-03-23T07:27:36.763Z,103039.59
2019-03-23T07:30:08.676Z,103044.33
2019-03-23T07:32:38.814Z,103055.38
2019-03-23T07:35:07.926Z,103061.31
2019-03-23T07:37:36.584Z,103062.31
2019-03-23T07:40:07.692Z,103068.21
2019-03-23T07:42:36.366Z,103068.59
2019-03-23T07:45:10.618Z,103070.53
2019-03-23T07:47:39.571Z,103066.71
2019-03-23T07:50:09.053Z,103068.67
2019-03-23T07:52:37.708Z,103072.92
2019-03-23T07:55:14.093Z,103074.70
2019-03-23T07:57:42.961Z,103079.45
2019-03-23T08:00:15.673Z,103079.45
2019-03-23T08:02:44.345Z,103084.70
2019-03-23T08:05:12.967Z,103088.14
2019-03-23T08:07:41.774Z,103093.47
2019-03-23T08:10:19.683Z,103096.69
2019-03-23T08:12:48.479Z,103090.72
2019-03-23T08:15:17.195Z,103093.30
2019-03-23T08:17:45.954Z,103099.28
2019-03-23T08:20:14.601Z,103106.00
2019-03-23T08:22:43.445Z,103105.42
2019-03-23T08:25:12.501Z,103104.91
2019-03-23T08:27:41.721Z,103104.87
2019-03-23T08:30:10.748Z,103108.81
2019-03-23T08:32:39.461Z,103108.69
2019-03-23T08:35:08.283Z,103110.25
2019-03-23T08:37:36.916Z,103110.83
2019-03-23T08:40:06.711Z,103113.59
2019-03-23T08:42:35.473Z,103116.84
2019-03-23T08:45:04.526Z,103114.97
2019-03-23T08:47:33.304Z,103122.12
2019-03-23T08:50:01.935Z,103116.95
2019-03-23T08:52:30.710Z,103121.87
2019-03-23T08:54:59.343Z,103126.19
2019-03-23T08:57:28.014Z,103128.65
2019-03-23T08:59:56.730Z,103120.97
2019-03-23T09:02:25.395Z,103130.43
2019-03-23T09:04:54.043Z,103130.25
2019-03-23T09:07:22.783Z,103139.13
2019-03-23T09:09:59.151Z,103143.11
2019-03-23T09:12:21.997Z,103139.30
2019-03-23T09:14:50.720Z,103140.45
2019-03-23T09:17:19.372Z,103143.60
2019-03-23T09:19:48.574Z,103151.77
2019-03-23T09:22:19.285Z,103148.63
2019-03-23T09:24:47.871Z,103145.95
2019-03-23T09:27:16.635Z,103152.42
2019-03-23T09:29:45.525Z,103158.48
2019-03-23T09:32:14.192Z,103152.56
2019-03-23T09:34:42.973Z,103155.11
2019-03-23T09:37:11.772Z,103153.02
2019-03-23T09:39:40.427Z,103153.83
2019-03-23T09:42:10.485Z,103149.81
2019-03-23T09:44:39.313Z,103152.60
2019-03-23T09:47:08.002Z,103153.62
2019-03-23T09:49:36.808Z,103152.94
2019-03-23T09:52:05.452Z,103146.76
2019-03-23T09:54:34.104Z,103146.34
2019-03-23T09:57:02.866Z,103149.14
2019-03-23T09:59:31.653Z,103146.79
2019-03-23T10:02:00.337Z,103150.10
2019-03-23T10:04:29.109Z,103151.08
2019-03-23T10:06:57.894Z,103148.30
2019-03-23T10:09:26.549Z,103149.09
2019-03-23T10:11:55.216Z,103151.35
2019-03-23T10:14:24.311Z,103161.19
2019-03-23T10:16:52.948Z,103155.59
2019-03-23T10:19:23.349Z,103156.86
2019-03-23T10:21:52.313Z,103153.59
2019-03-23T10:24:20.956Z,103148.94
2019-03-23T10:26:52.111Z,103153.67
2019-03-23T10:29:20.655Z,103155.45
2019-03-23T10:31:49.451Z,103155.30
2019-03-23T10:34:18.095Z,103158.07
2019-03-23T10:36:46.912Z,103156.09
2019-03-23T10:39:15.720Z,103156.50
2019-03-23T10:41:44.473Z,103154.84
2019-03-23T10:44:13.142Z,103158.55
2019-03-23T10:46:42.024Z,103163.66
2019-03-23T10:49:10.640Z,103161.72
2019-03-23T10:51:39.402Z,103156.85
2019-03-23T10:54:08.169Z,103151.81
2019-03-23T10:56:36.935Z,103158.22
2019-03-23T10:59:05.711Z,103155.16
2019-03-23T11:01:34.450Z,103150.22
2019-03-23T11:04:03.189Z,103149.41
2019-03-23T11:06:31.829Z,103144.27
2019-03-23T11:09:00.564Z,103148.52
2019-03-23T11:11:29.182Z,103146.50
2019-03-23T11:13:57.984Z,103151.48
2019-03-23T11:16:26.636Z,103150.86
2019-03-23T11:18:55.282Z,103149.35
2019-03-23T11:21:24.083Z,103154.33
2019-03-23T11:23:52.719Z,103147.73
2019-03-23T11:26:21.350Z,103154.81
2019-03-23T11:28:50.236Z,103165.50
2019-03-23T11:31:18.921Z,103168.64
2019-03-23T11:33:47.728Z,103162.36
2019-03-23T11:36:16.349Z,103170.00
2019-03-23T11:38:44.988Z,103180.05
2019-03-23T11:41:13.769Z,103178.82
2019-03-23T11:43:42.409Z,103173.62
2019-03-23T11:46:11.183Z,103171.67
2019-03-23T11:48:39.846Z,103173.27
2019-03-23T11:51:08.768Z,103176.88
2019-03-23T11:53:37.429Z,103187.25
2019-03-23T11:56:06.188Z,103184.14
2019-03-23T11:58:34.940Z,103178.20
2019-03-23T12:01:03.599Z,103177.22
2019-03-23T12:03:32.232Z,103179.16
2019-03-23T12:06:00.980Z,103181.73
2019-03-23T12:08:29.752Z,103184.88
2019-03-23T12:11:02.845Z,103182.47
2019-03-23T12:13:29.090Z,103181.29
2019-03-23T12:15:57.749Z,103186.01
2019-03-23T12:18:26.408Z,103191.88
2019-03-23T12:20:55.148Z,103192.45
2019-03-23T12:23:23.809Z,103188.65
2019-03-23T12:25:52.532Z,103200.41
2019-03-23T12:28:22.012Z,103200.09
2019-03-23T12:30:50.716Z,103195.63
2019-03-23T12:33:21.434Z,103189.13
2019-03-23T12:35:50.004Z,103193.24
2019-03-23T12:38:18.748Z,103192.48
2019-03-23T12:40:47.524Z,103204.45
2019-03-23T12:43:16.282Z,103199.80
2019-03-23T12:45:46.289Z,103198.77
2019-03-23T12:48:15.064Z,103197.88
2019-03-23T12:50:43.704Z,103206.44
2019-03-23T12:53:13.435Z,103200.63
2019-03-23T12:55:42.447Z,103197.84
2019-03-23T12:58:11.303Z,103203.42
2019-03-23T13:00:40.046Z,103203.59
2019-03-23T13:03:08.843Z,103210.48
2019-03-23T13:05:37.526Z,103206.50
2019-03-23T13:08:06.629Z,103205.49
2019-03-23T13:10:35.302Z,103210.55
2019-03-23T13:13:03.940Z,103204.73
2019-03-23T13:15:32.721Z,103215.33
2019-03-23T13:18:03.283Z,103219.31
2019-03-23T13:20:32.146Z,103210.13
2019-03-23T13:23:01.244Z,103214.09
2019-03-23T13:25:30.027Z,103216.89
2019-03-23T13:27:58.763Z,103220.14
2019-03-23T13:30:27.625Z,103207.36
2019-03-23T13:32:56.518Z,103214.52
2019-03-23T13:35:25.168Z,103208.07
2019-03-23T13:37:54.641Z,103214.27
2019-03-23T13:40:23.704Z,103214.36
2019-03-23T13:42:52.362Z,103212.94
2019-03-23T13:45:21.204Z,103212.05
2019-03-23T13:47:49.907Z,103213.95
2019-03-23T13:50:27.390Z,103211.90
2019-03-23T13:52:56.250Z,103213.35
2019-03-23T13:55:28.129Z,103209.05
2019-03-23T13:58:10.417Z,103208.52
2019-03-23T14:00:58.453Z,103201.13
2019-03-23T14:03:32.103Z,103209.56
2019-03-23T14:06:02.708Z,103205.69
2019-03-23T14:08:33.457Z,103206.63
2019-03-23T14:11:02.334Z,103208.08
2019-03-23T14:13:30.982Z,103209.77
2019-03-23T14:15:59.642Z,103202.63
2019-03-23T14:18:28.441Z,103199.92
2019-03-23T14:20:57.103Z,103205.93
2019-03-23T14:23:25.966Z,103208.53
2019-03-23T14:25:54.635Z,103205.20
2019-03-23T14:28:23.280Z,103205.38
2019-03-23T14:30:52.143Z,103201.72
2019-03-23T14:33:21.263Z,103204.16
2019-03-23T14:35:50.162Z,103211.40
2019-03-23T14:38:18.891Z,103211.29
2019-03-23T14:40:47.722Z,103211.56
2019-03-23T14:43:16.402Z,103211.98
2019-03-23T14:45:45.059Z,103215.25
2019-03-23T14:48:14.023Z,103215.80
2019-03-23T14:50:42.892Z,103220.00
2019-03-23T14:53:11.554Z,103219.57
2019-03-23T14:55:40.484Z,103220.39
2019-03-23T14:58:09.173Z,103211.05
2019-03-23T15:00:37.961Z,103216.48
2019-03-23T15:03:06.664Z,103220.05
2019-03-23T15:05:37.526Z,103220.95
2019-03-23T15:08:06.389Z,103220.37
2019-03-23T15:10:35.230Z,103224.55
2019-03-23T15:13:03.892Z,103228.08
2019-03-23T15:15:32.581Z,103233.20
2019-03-23T15:18:01.394Z,103225.03
2019-03-23T15:20:30.083Z,103230.09
2019-03-23T15:22:58.947Z,103232.16
2019-03-23T15:25:27.836Z,103227.53
2019-03-23T15:27:56.526Z,103233.69
2019-03-23T15:30:25.248Z,103233.88
2019-03-23T15:32:56.059Z,103232.48
2019-03-23T15:35:24.985Z,103236.78
2019-03-23T15:37:53.612Z,103237.48
2019-03-23T15:40:22.445Z,103230.97
2019-03-23T15:42:51.334Z,103230.49
2019-03-23T15:45:20.068Z,103233.44
2019-03-23T15:47:48.765Z,103237.19
2019-03-23T15:50:17.614Z,103239.55
2019-03-23T15:52:46.327Z,103240.20
2019-03-23T15:55:15.036Z,103243.34
2019-03-23T15:57:43.891Z,103236.21
2019-03-23T16:00:13.778Z,103238.61
2019-03-23T16:02:42.786Z,103241.95
2019-03-23T16:05:12.578Z,103236.21
2019-03-23T16:07:41.482Z,103241.20
2019-03-23T16:10:10.808Z,103237.92
2019-03-23T16:12:39.496Z,103229.64
2019-03-23T16:15:10.302Z,103238.28
2019-03-23T16:17:39.094Z,103238.94
2019-03-23T16:20:09.222Z,103241.01
2019-03-23T16:22:38.161Z,103237.72
2019-03-23T16:25:08.725Z,103234.05
2019-03-23T16:27:37.618Z,103236.22
2019-03-23T16:30:08.910Z,103237.91
2019-03-23T16:32:37.661Z,103241.09
2019-03-23T16:35:07.201Z,103245.66
2019-03-23T16:37:36.017Z,103235.92
2019-03-23T16:40:10.999Z,103231.92
2019-03-23T16:42:45.367Z,103236.79
2019-03-23T16:45:10.687Z,103234.96
2019-03-23T16:47:39.360Z,103236.36
2019-03-23T16:50:09.649Z,103244.30
2019-03-23T16:52:38.774Z,103236.41
2019-03-23T16:55:09.659Z,103228.17
2019-03-23T16:57:38.542Z,103234.06
2019-03-23T17:00:07.979Z,103234.11
2019-03-23T17:02:37.794Z,103239.55
2019-03-23T17:05:06.955Z,103240.69
2019-03-23T17:07:35.631Z,103231.36
2019-03-23T17:10:05.252Z,103240.27
2019-03-23T17:12:37.068Z,103240.27
2019-03-23T17:15:06.929Z,103234.48
2019-03-23T17:17:37.530Z,103238.88
2019-03-23T17:20:07.876Z,103237.81
2019-03-23T17:22:36.590Z,103236.43
2019-03-23T17:25:05.915Z,103228.94
2019-03-23T17:27:35.014Z,103237.94
2019-03-23T17:30:04.395Z,103231.11
2019-03-23T17:32:33.387Z,103236.56
2019-03-23T17:35:02.146Z,103237.80
2019-03-23T17:37:31.033Z,103245.00
2019-03-23T17:39:59.951Z,103241.53
2019-03-23T17:42:28.744Z,103246.31
2019-03-23T17:44:57.505Z,103243.42
2019-03-23T17:47:26.366Z,103253.05
2019-03-23T17:49:57.311Z,103249.79
2019-03-23T17:52:26.152Z,103255.39
2019-03-23T17:54:55.084Z,103256.86
2019-03-23T17:57:23.807Z,103258.41
2019-03-23T17:59:52.490Z,103263.30
2019-03-23T18:02:21.466Z,103263.96
2019-03-23T18:04:51.935Z,103271.60
2019-03-23T18:07:20.618Z,103271.57
2019-03-23T18:09:49.515Z,103270.09
2019-03-23T18:12:18.348Z,103275.23
2019-03-23T18:14:47.381Z,103274.02
2019-03-23T18:17:16.040Z,103278.71
2019-03-23T18:19:45.700Z,103273.72
2019-03-23T18:22:16.409Z,103270.59
2019-03-23T18:24:45.261Z,103268.99
2019-03-23T18:27:14.064Z,103269.22
2019-03-23T18:29:42.990Z,103277.87
2019-03-23T18:32:13.447Z,103280.66
2019-03-23T18:34:44.047Z,103285.69
2019-03-23T18:37:13.065Z,103295.11
2019-03-23T18:39:41.711Z,103300.25
2019-03-23T18:42:10.554Z,103292.86
2019-03-23T18:44:39.384Z,103296.52
2019-03-23T18:47:17.593Z,103299.20
2019-03-23T18:49:46.726Z,103302.52
2019-03-23T18:52:16.089Z,103300.38
2019-03-23T18:54:45.191Z,103304.83
2019-03-23T18:57:13.976Z,103304.08
2019-03-23T18:59:42.862Z,103312.02
2019-03-23T19:02:11.901Z,103310.66
2019-03-23T19:04:40.716Z,103302.73
2019-03-23T19:07:09.467Z,103308.91
2019-03-23T19:09:38.226Z,103310.61
2019-03-23T19:12:07.104Z,103318.66
2019-03-23T19:14:35.976Z,103326.95
2019-03-23T19:17:04.729Z,103322.13
2019-03-23T19:19:33.800Z,103319.58
2019-03-23T19:22:03.197Z,103320.94
2019-03-23T19:24:31.926Z,103315.31
2019-03-23T19:27:00.587Z,103326.61
2019-03-23T19:29:30.245Z,103326.52
2019-03-23T19:31:58.940Z,103314.37
2019-03-23T19:34:27.867Z,103323.11
2019-03-23T19:36:56.703Z,103325.73
2019-03-23T19:39:25.475Z,103321.81
2019-03-23T19:41:54.416Z,103327.14
2019-03-23T19:44:23.090Z,103331.52
2019-03-23T19:46:52.953Z,103327.14
2019-03-23T19:49:21.866Z,103326.28
2019-03-23T19:51:51.008Z,103331.97
2019-03-23T19:54:19.786Z,103335.06
2019-03-23T19:56:48.634Z,103325.11
2019-03-23T19:59:18.472Z,103336.81
2019-03-23T20:01:47.211Z,103312.91
2019-03-23T20:04:15.850Z,103322.86
2019-03-23T20:06:46.703Z,103320.73
2019-03-23T20:09:15.367Z,103331.20
2019-03-23T20:11:44.278Z,103324.24
2019-03-23T20:14:13.087Z,103317.72
2019-03-23T20:16:42.274Z,103320.34
2019-03-23T20:19:11.499Z,103327.73
2019-03-23T20:21:42.570Z,103324.67
2019-03-23T20:24:11.596Z,103321.64
2019-03-23T20:26:40.418Z,103332.52
2019-03-23T20:29:09.303Z,103326.00
2019-03-23T20:31:38.273Z,103327.31
2019-03-23T20:34:07.513Z,103321.23
2019-03-23T20:36:36.401Z,103325.99
2019-03-23T20:39:06.778Z,103322.09
2019-03-23T20:41:35.704Z,103322.53
2019-03-23T20:44:09.344Z,103310.34
2019-03-23T20:46:35.574Z,103325.13
2019-03-23T20:49:07.202Z,103322.10
2019-03-23T20:51:36.666Z,103316.87
2019-03-23T20:54:05.622Z,103312.11
2019-03-23T20:56:35.396Z,103317.76
2019-03-23T20:59:04.312Z,103312.95
2019-03-23T21:01:33.343Z,103312.09
2019-03-23T21:04:02.071Z,103316.88
2019-03-23T21:06:30.997Z,103324.70
2019-03-23T21:09:01.693Z,103322.94
2019-03-23T21:11:30.579Z,103325.58
2019-03-23T21:13:59.959Z,103323.39
2019-03-23T21:16:28.802Z,103325.55
2019-03-23T21:18:57.806Z,103327.72
2019-03-23T21:21:26.653Z,103315.08
2019-03-23T21:23:55.706Z,103322.48
2019-03-23T21:26:29.785Z,103306.42
2019-03-23T21:28:58.556Z,103320.78
2019-03-23T21:31:27.422Z,103310.36
2019-03-23T21:33:56.183Z,103313.38
2019-03-23T21:36:24.909Z,103312.94
2019-03-23T21:38:54.005Z,103311.22
2019-03-23T21:41:22.722Z,103309.92
2019-03-23T21:43:51.407Z,103316.02
2019-03-23T21:46:20.365Z,103316.44
2019-03-23T21:48:49.026Z,103308.63
2019-03-23T21:51:19.306Z,103310.36
2019-03-23T21:53:48.088Z,103308.20
2019-03-23T21:56:17.076Z,103306.88
2019-03-23T21:58:49.188Z,103303.41
2019-03-23T22:01:17.909Z,103304.73
2019-03-23T22:03:46.726Z,103300.81
2019-03-23T22:06:16.482Z,103303.41
2019-03-23T22:08:47.248Z,103299.06
2019-03-23T22:11:16.059Z,103303.83
2019-03-23T22:13:44.956Z,103307.30
2019-03-23T22:16:13.639Z,103297.75
2019-03-23T22:18:42.878Z,103301.64
2019-03-23T22:21:11.550Z,103298.61
2019-03-23T22:23:40.442Z,103295.58
2019-03-23T22:26:11.525Z,103292.98
2019-03-23T22:28:43.408Z,103290.33
2019-03-23T22:31:12.113Z,103289.41
2019-03-23T22:33:42.764Z,103285.92
2019-03-23T22:36:11.561Z,103278.56
2019-03-23T22:38:40.271Z,103287.63
2019-03-23T22:41:08.912Z,103290.27
2019-03-23T22:43:37.937Z,103275.06
2019-03-23T22:46:06.624Z,103287.30
2019-03-23T22:48:35.310Z,103289.91
2019-03-23T22:51:04.310Z,103290.70
2019-03-23T22:53:32.993Z,103285.95
2019-03-23T22:56:02.011Z,103291.59
2019-03-23T22:58:30.738Z,103284.65
2019-03-23T23:00:59.796Z,103269.95
2019-03-23T23:03:30.521Z,103275.17
2019-03-23T23:05:59.844Z,103273.85
2019-03-23T23:08:28.824Z,103268.17
2019-03-23T23:10:57.963Z,103262.94
2019-03-23T23:13:26.677Z,103263.80
2019-03-23T23:15:55.350Z,103265.89
2019-03-23T23:18:24.211Z,103259.42
2019-03-23T23:20:52.917Z,103257.67
2019-03-23T23:23:21.833Z,103259.79
2019-03-23T23:25:50.769Z,103261.09
2019-03-23T23:28:19.507Z,103249.87
2019-03-23T23:30:50.327Z,103252.50
2019-03-23T23:33:19.429Z,103252.06
2019-03-23T23:35:48.094Z,103248.13
2019-03-23T23:38:17.117Z,103252.51
2019-03-23T23:40:45.912Z,103252.88
2019-03-23T23:43:15.189Z,103260.28
2019-03-23T23:45:43.865Z,103256.23
2019-03-23T23:48:12.683Z,103243.33
2019-03-23T23:50:41.796Z,103248.00
2019-03-23T23:53:11.886Z,103238.04
2019-03-23T23:55:40.608Z,103247.59
2019-03-23T23:58:09.516Z,103245.44
